Lipscomb, TX (79056)

3:39 PM CDT on July 25, 2014 (GMT -0500)
Zender Laundromat (KTXBOOKE2) Elev 2844 ft | 36.45 °N, 100.54 °W | Change Station

Current weather conditions updated 3 seconds ago

Clear
Clear
103.8 °F
Feels Like 109 °F
N
9.8
Wind Variable Wind from SW
Gusts 34.9 mph

Today is forecast to be nearly the same temperature as yesterday.

Today
High -- | Low -- °F
--% Chance of Precip.
Yesterday
High -- | Low -- °F
Precip. -- in
6:42 AM 8:52 PM
Waning Crescent, 1% visible
Pressure 29.90 in
Visibility 10.0 miles
Clouds Clear
Heat Index 109 °F
Dew Point 66 °F
Humidity 30%
Rainfall 0.00 in
Snow Depth Not available.
UV 11 out of 12
Pollen 5.60 out of 12
Air Quality Not available.
Flu Activity Not available.
METAR KHHF 252015Z AUTO 22020G26KT 10SM CLR 39/14 A2990 RMK AO2 T03940141

More Conditions Fewer Conditions

Pressure 29.90 in
Visibility 10.0 miles
Clouds Clear
Heat Index 109 °F
Dew Point 66 °F
Humidity 30%
Rainfall 0.00 in
Snow Depth Not available.
UV 11 out of 12
Pollen 5.60 out of 12
Air Quality Not available.
Flu Activity Not available.
METAR KHHF 252015Z AUTO 22020G26KT 10SM CLR 39/14 A2990 RMK AO2 T03940141

More Conditions Fewer Conditions

10-Day Weather Forecast

Almanac

Astronomy

Jul. 25, 2014 Rise Set
Actual Time 6:42 AM CDT 8:52 PM CDT
Civil Twilight 6:13 AM CDT 9:21 PM CDT
Nautical Twilight 5:38 AM CDT 9:56 PM CDT
Astronomical Twilight 5:00 AM CDT 10:34 PM CDT
Moon 5:42 AM CDT 7:52 PM CDT
Length of Visible Light 15h 07m
Length of Day
14h 09m
Tomorrow will be 1m 31s shorter.
Waning Crescent, 1% of the Moon is Illuminated
Today
Waning Crescent
Jul 26
New
Aug 3
First Quarter
Aug 10
Full
Aug 17
Last Quarter

Today's Extremes

State Highs State Lows

Community

WunderPhotos

Upload Photos

1,737,397 photos uploaded!

Nearby

Snow Depth

Station Depth Elevation
No new snow has been reported.

Earthquake Activity

City Distance Mag. Time & Date
No recent earthquake activity has been reported nearby.
Minimum magnitude displayed is 2.5.

Coastal Water Temperatures

Place Temperature
No Stations Reporting

Nearby Weather Stations

Station Location Temp. Heat Index Dew Point Humidity Wind Precip. Elev Updated Type
Zender Laundromat, Booker, TX 103.8 °F 109 °F 66 °F 30% SW  at  9.8 mph 0.00 in / hr 2844 ft 3:39 PM CDT Rapid Fire
APRSWXNET Canadian TX , Canadian, TX 100 °F 102 °F 62 °F 29% SSW  at  11 mph 0.00 in / hr 2434 ft 2:38 PM CDT MADIS

Show More Stations Show Fewer Stations